sensor_id;sensor_type;location;lat;lon;timestamp;P1;durP1;ratioP1;P2;durP2;ratioP2
21820;SDS011;11073;48.586;12.066;2023-06-22T00:24:40;10.38;;;6.00;;
21820;SDS011;11073;48.586;12.066;2023-06-22T00:55:44;9.32;;;5.90;;
21820;SDS011;11073;48.586;12.066;2023-06-22T02:27:10;8.80;;;6.50;;
21820;SDS011;11073;48.586;12.066;2023-06-22T02:36:17;11.98;;;7.60;;
21820;SDS011;11073;48.586;12.066;2023-06-22T03:55:25;14.07;;;7.60;;
21820;SDS011;11073;48.586;12.066;2023-06-22T03:59:33;10.68;;;7.85;;
21820;SDS011;11073;48.586;12.066;2023-06-22T04:03:54;11.88;;;7.85;;
21820;SDS011;11073;48.586;12.066;2023-06-22T04:15:26;10.32;;;7.68;;
21820;SDS011;11073;48.586;12.066;2023-06-22T04:24:16;10.98;;;7.68;;
21820;SDS011;11073;48.586;12.066;2023-06-22T04:31:23;11.35;;;7.50;;
21820;SDS011;11073;48.586;12.066;2023-06-22T04:34:02;15.90;;;8.88;;
21820;SDS011;11073;48.586;12.066;2023-06-22T04:36:34;13.93;;;8.02;;
21820;SDS011;11073;48.586;12.066;2023-06-22T04:39:08;13.27;;;8.25;;
21820;SDS011;11073;48.586;12.066;2023-06-22T04:41:37;13.45;;;7.53;;
21820;SDS011;11073;48.586;12.066;2023-06-22T04:44:13;11.13;;;8.23;;
21820;SDS011;11073;48.586;12.066;2023-06-22T04:46:53;11.38;;;7.53;;
21820;SDS011;11073;48.586;12.066;2023-06-22T04:49:27;15.02;;;8.27;;
21820;SDS011;11073;48.586;12.066;2023-06-22T04:52:00;11.13;;;7.63;;
21820;SDS011;11073;48.586;12.066;2023-06-22T04:54:29;12.50;;;7.20;;
21820;SDS011;11073;48.586;12.066;2023-06-22T04:57:00;12.43;;;6.80;;
21820;SDS011;11073;48.586;12.066;2023-06-22T04:59:29;9.32;;;6.38;;
21820;SDS011;11073;48.586;12.066;2023-06-22T05:02:02;10.30;;;5.68;;
21820;SDS011;11073;48.586;12.066;2023-06-22T05:04:31;10.35;;;6.68;;
21820;SDS011;11073;48.586;12.066;2023-06-22T05:07:03;12.13;;;7.10;;
21820;SDS011;11073;48.586;12.066;2023-06-22T05:09:32;10.63;;;7.10;;
21820;SDS011;11073;48.586;12.066;2023-06-22T05:12:02;13.00;;;7.70;;
21820;SDS011;11073;48.586;12.066;2023-06-22T05:14:34;10.48;;;6.80;;
21820;SDS011;11073;48.586;12.066;2023-06-22T05:17:05;11.48;;;7.03;;
21820;SDS011;11073;48.586;12.066;2023-06-22T05:19:42;11.68;;;7.47;;
21820;SDS011;11073;48.586;12.066;2023-06-22T05:22:15;10.48;;;6.32;;
21820;SDS011;11073;48.586;12.066;2023-06-22T05:24:43;10.18;;;5.40;;
21820;SDS011;11073;48.586;12.066;2023-06-22T05:27:12;10.18;;;5.88;;
21820;SDS011;11073;48.586;12.066;2023-06-22T05:29:40;12.50;;;5.82;;
21820;SDS011;11073;48.586;12.066;2023-06-22T05:32:11;8.07;;;5.68;;
21820;SDS011;11073;48.586;12.066;2023-06-22T05:34:40;7.53;;;4.60;;
21820;SDS011;11073;48.586;12.066;2023-06-22T05:37:08;7.80;;;5.45;;
21820;SDS011;11073;48.586;12.066;2023-06-22T05:39:37;8.57;;;4.75;;
21820;SDS011;11073;48.586;12.066;2023-06-22T05:42:06;9.52;;;5.13;;
21820;SDS011;11073;48.586;12.066;2023-06-22T05:44:37;10.48;;;5.07;;
21820;SDS011;11073;48.586;12.066;2023-06-22T05:47:07;8.25;;;4.25;;
21820;SDS011;11073;48.586;12.066;2023-06-22T05:49:38;8.70;;;4.88;;
21820;SDS011;11073;48.586;12.066;2023-06-22T05:52:06;5.85;;;3.85;;
21820;SDS011;11073;48.586;12.066;2023-06-22T05:54:35;8.60;;;4.63;;
21820;SDS011;11073;48.586;12.066;2023-06-22T05:57:06;11.07;;;5.13;;
21820;SDS011;11073;48.586;12.066;2023-06-22T05:59:34;6.50;;;4.15;;
21820;SDS011;11073;48.586;12.066;2023-06-22T06:02:04;9.32;;;4.68;;
21820;SDS011;11073;48.586;12.066;2023-06-22T06:04:33;7.72;;;4.43;;
21820;SDS011;11073;48.586;12.066;2023-06-22T06:07:04;8.75;;;4.72;;
21820;SDS011;11073;48.586;12.066;2023-06-22T06:09:32;8.77;;;4.80;;
21820;SDS011;11073;48.586;12.066;2023-06-22T06:12:01;9.73;;;4.72;;
21820;SDS011;11073;48.586;12.066;2023-06-22T06:14:31;6.75;;;4.18;;
21820;SDS011;11073;48.586;12.066;2023-06-22T06:17:01;6.97;;;4.05;;
21820;SDS011;11073;48.586;12.066;2023-06-22T06:19:29;10.73;;;4.75;;
21820;SDS011;11073;48.586;12.066;2023-06-22T06:21:59;7.18;;;4.47;;
21820;SDS011;11073;48.586;12.066;2023-06-22T06:24:29;10.27;;;5.05;;
21820;SDS011;11073;48.586;12.066;2023-06-22T06:26:58;10.40;;;4.45;;
21820;SDS011;11073;48.586;12.066;2023-06-22T06:29:27;7.70;;;4.50;;
21820;SDS011;11073;48.586;12.066;2023-06-22T06:31:55;7.00;;;4.45;;
21820;SDS011;11073;48.586;12.066;2023-06-22T06:34:24;7.18;;;3.80;;
21820;SDS011;11073;48.586;12.066;2023-06-22T06:36:53;8.18;;;4.28;;
21820;SDS011;11073;48.586;12.066;2023-06-22T06:39:22;6.90;;;4.45;;
21820;SDS011;11073;48.586;12.066;2023-06-22T06:41:51;6.63;;;3.90;;
21820;SDS011;11073;48.586;12.066;2023-06-22T06:44:20;10.77;;;5.15;;
21820;SDS011;11073;48.586;12.066;2023-06-22T06:46:49;9.13;;;4.50;;
21820;SDS011;11073;48.586;12.066;2023-06-22T06:49:19;9.93;;;4.38;;
21820;SDS011;11073;48.586;12.066;2023-06-22T06:51:47;9.93;;;4.38;;
21820;SDS011;11073;48.586;12.066;2023-06-22T06:54:16;6.90;;;4.53;;
21820;SDS011;11073;48.586;12.066;2023-06-22T06:56:48;10.18;;;4.38;;
21820;SDS011;11073;48.586;12.066;2023-06-22T06:59:18;8.40;;;4.18;;
21820;SDS011;11073;48.586;12.066;2023-06-22T07:01:47;9.98;;;4.47;;
21820;SDS011;11073;48.586;12.066;2023-06-22T07:04:16;9.48;;;4.10;;
21820;SDS011;11073;48.586;12.066;2023-06-22T07:06:45;11.13;;;4.95;;
21820;SDS011;11073;48.586;12.066;2023-06-22T07:09:14;7.38;;;4.22;;
21820;SDS011;11073;48.586;12.066;2023-06-22T07:11:43;7.15;;;4.20;;
21820;SDS011;11073;48.586;12.066;2023-06-22T07:14:11;8.00;;;4.68;;
21820;SDS011;11073;48.586;12.066;2023-06-22T07:16:41;9.55;;;4.75;;
21820;SDS011;11073;48.586;12.066;2023-06-22T07:19:10;8.10;;;4.93;;
21820;SDS011;11073;48.586;12.066;2023-06-22T07:21:39;7.55;;;4.30;;
21820;SDS011;11073;48.586;12.066;2023-06-22T07:24:08;8.70;;;4.82;;
21820;SDS011;11073;48.586;12.066;2023-06-22T07:26:36;9.38;;;4.78;;
21820;SDS011;11073;48.586;12.066;2023-06-22T07:29:05;8.27;;;4.43;;
21820;SDS011;11073;48.586;12.066;2023-06-22T07:31:37;9.35;;;4.65;;
21820;SDS011;11073;48.586;12.066;2023-06-22T07:34:08;9.40;;;4.40;;
21820;SDS011;11073;48.586;12.066;2023-06-22T07:36:37;9.45;;;4.65;;
21820;SDS011;11073;48.586;12.066;2023-06-22T07:39:06;11.27;;;5.32;;
21820;SDS011;11073;48.586;12.066;2023-06-22T07:41:34;8.43;;;4.47;;
21820;SDS011;11073;48.586;12.066;2023-06-22T07:44:03;11.25;;;5.53;;
21820;SDS011;11073;48.586;12.066;2023-06-22T07:46:32;9.93;;;4.70;;
21820;SDS011;11073;48.586;12.066;2023-06-22T07:49:01;11.95;;;4.85;;
21820;SDS011;11073;48.586;12.066;2023-06-22T07:51:31;8.73;;;5.18;;
21820;SDS011;11073;48.586;12.066;2023-06-22T07:54:01;11.02;;;5.22;;
21820;SDS011;11073;48.586;12.066;2023-06-22T07:56:29;7.50;;;5.20;;
21820;SDS011;11073;48.586;12.066;2023-06-22T07:58:58;7.95;;;4.82;;
21820;SDS011;11073;48.586;12.066;2023-06-22T08:01:27;8.77;;;5.40;;
21820;SDS011;11073;48.586;12.066;2023-06-22T08:03:57;10.90;;;5.32;;
21820;SDS011;11073;48.586;12.066;2023-06-22T08:06:26;10.85;;;4.95;;
21820;SDS011;11073;48.586;12.066;2023-06-22T08:08:56;12.25;;;4.85;;
21820;SDS011;11073;48.586;12.066;2023-06-22T08:11:26;10.07;;;5.22;;
21820;SDS011;11073;48.586;12.066;2023-06-22T08:13:55;11.65;;;5.50;;
21820;SDS011;11073;48.586;12.066;2023-06-22T08:16:25;8.75;;;5.07;;
21820;SDS011;11073;48.586;12.066;2023-06-22T08:18:54;8.00;;;4.93;;
21820;SDS011;11073;48.586;12.066;2023-06-22T08:21:23;8.50;;;4.88;;
21820;SDS011;11073;48.586;12.066;2023-06-22T08:23:52;11.23;;;5.25;;
21820;SDS011;11073;48.586;12.066;2023-06-22T08:26:22;9.38;;;5.10;;
21820;SDS011;11073;48.586;12.066;2023-06-22T08:28:51;8.18;;;4.88;;
21820;SDS011;11073;48.586;12.066;2023-06-22T08:31:20;7.55;;;4.90;;
21820;SDS011;11073;48.586;12.066;2023-06-22T08:33:48;8.23;;;4.32;;
21820;SDS011;11073;48.586;12.066;2023-06-22T08:36:17;11.63;;;4.20;;
21820;SDS011;11073;48.586;12.066;2023-06-22T08:38:46;10.30;;;4.85;;
21820;SDS011;11073;48.586;12.066;2023-06-22T08:41:17;8.20;;;4.40;;
21820;SDS011;11073;48.586;12.066;2023-06-22T08:43:47;9.10;;;4.28;;
21820;SDS011;11073;48.586;12.066;2023-06-22T08:46:16;7.93;;;4.30;;
21820;SDS011;11073;48.586;12.066;2023-06-22T08:48:48;10.57;;;4.32;;
21820;SDS011;11073;48.586;12.066;2023-06-22T08:51:17;8.00;;;4.53;;
21820;SDS011;11073;48.586;12.066;2023-06-22T08:53:46;6.53;;;4.57;;
21820;SDS011;11073;48.586;12.066;2023-06-22T08:56:15;8.65;;;4.43;;
21820;SDS011;11073;48.586;12.066;2023-06-22T08:58:44;10.15;;;4.63;;
21820;SDS011;11073;48.586;12.066;2023-06-22T09:01:13;8.90;;;3.90;;
21820;SDS011;11073;48.586;12.066;2023-06-22T09:03:43;5.57;;;4.10;;
21820;SDS011;11073;48.586;12.066;2023-06-22T09:06:11;9.05;;;4.05;;
21820;SDS011;11073;48.586;12.066;2023-06-22T09:08:42;6.95;;;4.00;;
21820;SDS011;11073;48.586;12.066;2023-06-22T09:11:10;7.53;;;4.38;;
21820;SDS011;11073;48.586;12.066;2023-06-22T09:13:40;9.02;;;3.83;;
21820;SDS011;11073;48.586;12.066;2023-06-22T09:16:08;8.00;;;4.03;;
21820;SDS011;11073;48.586;12.066;2023-06-22T09:18:38;7.15;;;4.13;;
21820;SDS011;11073;48.586;12.066;2023-06-22T09:21:07;9.13;;;4.50;;
21820;SDS011;11073;48.586;12.066;2023-06-22T09:23:36;10.80;;;3.88;;
21820;SDS011;11073;48.586;12.066;2023-06-22T09:26:04;9.77;;;4.20;;
21820;SDS011;11073;48.586;12.066;2023-06-22T09:28:35;11.65;;;3.78;;
21820;SDS011;11073;48.586;12.066;2023-06-22T09:31:04;8.45;;;4.13;;
21820;SDS011;11073;48.586;12.066;2023-06-22T09:33:33;11.05;;;4.20;;
21820;SDS011;11073;48.586;12.066;2023-06-22T09:36:04;10.68;;;3.70;;
21820;SDS011;11073;48.586;12.066;2023-06-22T09:38:34;14.07;;;4.78;;
21820;SDS011;11073;48.586;12.066;2023-06-22T09:41:03;9.38;;;3.95;;
21820;SDS011;11073;48.586;12.066;2023-06-22T09:43:32;9.32;;;4.40;;
21820;SDS011;11073;48.586;12.066;2023-06-22T09:46:02;9.48;;;4.13;;
21820;SDS011;11073;48.586;12.066;2023-06-22T09:48:30;11.05;;;4.32;;
21820;SDS011;11073;48.586;12.066;2023-06-22T09:50:59;9.02;;;4.63;;
21820;SDS011;11073;48.586;12.066;2023-06-22T09:53:29;11.60;;;4.55;;
21820;SDS011;11073;48.586;12.066;2023-06-22T09:55:57;11.75;;;4.47;;
21820;SDS011;11073;48.586;12.066;2023-06-22T09:58:26;10.85;;;3.90;;
21820;SDS011;11073;48.586;12.066;2023-06-22T10:00:55;9.13;;;4.03;;
21820;SDS011;11073;48.586;12.066;2023-06-22T10:03:24;8.90;;;4.07;;
21820;SDS011;11073;48.586;12.066;2023-06-22T10:05:53;9.35;;;4.68;;
21820;SDS011;11073;48.586;12.066;2023-06-22T10:08:21;10.13;;;4.80;;
21820;SDS011;11073;48.586;12.066;2023-06-22T10:10:51;9.45;;;4.68;;
21820;SDS011;11073;48.586;12.066;2023-06-22T10:13:20;9.52;;;4.75;;
21820;SDS011;11073;48.586;12.066;2023-06-22T10:15:49;9.77;;;4.25;;
21820;SDS011;11073;48.586;12.066;2023-06-22T10:18:19;11.88;;;4.55;;
21820;SDS011;11073;48.586;12.066;2023-06-22T10:20:48;11.18;;;4.07;;
21820;SDS011;11073;48.586;12.066;2023-06-22T10:23:18;10.77;;;4.68;;
21820;SDS011;11073;48.586;12.066;2023-06-22T10:25:48;9.48;;;4.47;;
21820;SDS011;11073;48.586;12.066;2023-06-22T10:28:18;10.38;;;4.70;;
21820;SDS011;11073;48.586;12.066;2023-06-22T10:30:47;10.35;;;4.38;;
21820;SDS011;11073;48.586;12.066;2023-06-22T10:33:16;10.98;;;4.60;;
21820;SDS011;11073;48.586;12.066;2023-06-22T10:35:45;8.13;;;4.53;;
21820;SDS011;11073;48.586;12.066;2023-06-22T10:38:13;12.85;;;4.95;;
21820;SDS011;11073;48.586;12.066;2023-06-22T10:40:41;10.80;;;4.50;;
21820;SDS011;11073;48.586;12.066;2023-06-22T10:43:10;13.10;;;4.90;;
21820;SDS011;11073;48.586;12.066;2023-06-22T10:45:41;11.02;;;5.13;;
21820;SDS011;11073;48.586;12.066;2023-06-22T10:48:09;8.90;;;4.43;;
21820;SDS011;11073;48.586;12.066;2023-06-22T10:50:38;12.20;;;4.50;;
21820;SDS011;11073;48.586;12.066;2023-06-22T10:53:07;13.00;;;4.47;;
21820;SDS011;11073;48.586;12.066;2023-06-22T10:55:36;18.52;;;5.85;;
21820;SDS011;11073;48.586;12.066;2023-06-22T10:58:23;9.23;;;4.40;;
21820;SDS011;11073;48.586;12.066;2023-06-22T11:00:53;9.23;;;4.65;;
21820;SDS011;11073;48.586;12.066;2023-06-22T11:03:22;12.15;;;4.50;;
21820;SDS011;11073;48.586;12.066;2023-06-22T11:05:52;12.07;;;4.93;;
21820;SDS011;11073;48.586;12.066;2023-06-22T11:08:21;17.40;;;5.00;;
21820;SDS011;11073;48.586;12.066;2023-06-22T11:10:50;9.68;;;4.57;;
21820;SDS011;11073;48.586;12.066;2023-06-22T11:13:19;10.43;;;4.88;;
21820;SDS011;11073;48.586;12.066;2023-06-22T11:15:48;11.82;;;5.35;;
21820;SDS011;11073;48.586;12.066;2023-06-22T11:18:18;9.98;;;4.88;;
21820;SDS011;11073;48.586;12.066;2023-06-22T11:20:47;12.02;;;4.50;;
21820;SDS011;11073;48.586;12.066;2023-06-22T11:23:19;9.32;;;4.78;;
21820;SDS011;11073;48.586;12.066;2023-06-22T11:25:48;10.25;;;4.30;;
21820;SDS011;11073;48.586;12.066;2023-06-22T11:28:16;9.70;;;4.13;;
21820;SDS011;11073;48.586;12.066;2023-06-22T11:30:45;12.52;;;4.90;;
21820;SDS011;11073;48.586;12.066;2023-06-22T11:33:14;12.13;;;4.47;;
21820;SDS011;11073;48.586;12.066;2023-06-22T11:35:44;15.65;;;5.47;;
21820;SDS011;11073;48.586;12.066;2023-06-22T11:38:13;8.27;;;4.40;;
21820;SDS011;11073;48.586;12.066;2023-06-22T11:40:41;9.65;;;4.80;;
21820;SDS011;11073;48.586;12.066;2023-06-22T11:43:10;11.10;;;4.78;;
21820;SDS011;11073;48.586;12.066;2023-06-22T11:45:39;9.13;;;4.75;;
21820;SDS011;11073;48.586;12.066;2023-06-22T11:48:08;11.95;;;4.90;;
21820;SDS011;11073;48.586;12.066;2023-06-22T11:50:37;10.65;;;5.63;;
21820;SDS011;11073;48.586;12.066;2023-06-22T11:53:07;14.70;;;5.30;;
21820;SDS011;11073;48.586;12.066;2023-06-22T11:55:35;15.40;;;4.93;;
21820;SDS011;11073;48.586;12.066;2023-06-22T11:58:04;13.43;;;4.53;;
21820;SDS011;11073;48.586;12.066;2023-06-22T12:00:33;11.63;;;5.05;;
21820;SDS011;11073;48.586;12.066;2023-06-22T12:03:17;16.48;;;5.43;;
21820;SDS011;11073;48.586;12.066;2023-06-22T12:05:46;9.05;;;5.10;;
21820;SDS011;11073;48.586;12.066;2023-06-22T12:08:16;9.18;;;4.80;;
21820;SDS011;11073;48.586;12.066;2023-06-22T12:10:45;9.55;;;4.68;;
21820;SDS011;11073;48.586;12.066;2023-06-22T12:13:14;13.80;;;4.88;;
21820;SDS011;11073;48.586;12.066;2023-06-22T12:15:44;12.55;;;5.00;;
21820;SDS011;11073;48.586;12.066;2023-06-22T12:18:13;9.93;;;4.63;;
21820;SDS011;11073;48.586;12.066;2023-06-22T12:20:42;11.45;;;5.07;;
21820;SDS011;11073;48.586;12.066;2023-06-22T12:23:12;11.82;;;5.20;;
21820;SDS011;11073;48.586;12.066;2023-06-22T12:25:42;11.75;;;4.70;;
21820;SDS011;11073;48.586;12.066;2023-06-22T12:28:13;10.82;;;5.28;;
21820;SDS011;11073;48.586;12.066;2023-06-22T12:30:42;12.13;;;4.78;;
21820;SDS011;11073;48.586;12.066;2023-06-22T12:33:11;13.35;;;5.43;;
21820;SDS011;11073;48.586;12.066;2023-06-22T12:35:40;10.48;;;5.38;;
21820;SDS011;11073;48.586;12.066;2023-06-22T12:38:09;18.30;;;4.57;;
21820;SDS011;11073;48.586;12.066;2023-06-22T12:40:38;8.52;;;4.72;;
21820;SDS011;11073;48.586;12.066;2023-06-22T12:43:08;11.75;;;5.30;;
21820;SDS011;11073;48.586;12.066;2023-06-22T12:45:37;10.25;;;4.72;;
21820;SDS011;11073;48.586;12.066;2023-06-22T12:48:05;12.80;;;4.80;;
21820;SDS011;11073;48.586;12.066;2023-06-22T12:50:35;11.93;;;5.20;;
21820;SDS011;11073;48.586;12.066;2023-06-22T12:53:05;10.45;;;5.53;;
21820;SDS011;11073;48.586;12.066;2023-06-22T12:55:34;13.82;;;5.55;;
21820;SDS011;11073;48.586;12.066;2023-06-22T12:58:03;10.65;;;4.93;;
21820;SDS011;11073;48.586;12.066;2023-06-22T13:00:33;10.85;;;5.18;;
21820;SDS011;11073;48.586;12.066;2023-06-22T13:03:02;10.63;;;4.97;;
21820;SDS011;11073;48.586;12.066;2023-06-22T13:05:31;15.20;;;5.25;;
21820;SDS011;11073;48.586;12.066;2023-06-22T13:08:01;15.73;;;5.38;;
21820;SDS011;11073;48.586;12.066;2023-06-22T13:10:31;15.82;;;5.20;;
21820;SDS011;11073;48.586;12.066;2023-06-22T13:13:00;12.27;;;5.00;;
21820;SDS011;11073;48.586;12.066;2023-06-22T13:15:29;12.18;;;5.20;;
21820;SDS011;11073;48.586;12.066;2023-06-22T13:18:00;14.98;;;5.05;;
21820;SDS011;11073;48.586;12.066;2023-06-22T13:20:29;13.70;;;5.38;;
21820;SDS011;11073;48.586;12.066;2023-06-22T13:22:59;14.88;;;5.28;;
21820;SDS011;11073;48.586;12.066;2023-06-22T13:25:27;11.93;;;5.38;;
21820;SDS011;11073;48.586;12.066;2023-06-22T13:27:57;11.63;;;5.20;;
21820;SDS011;11073;48.586;12.066;2023-06-22T13:30:25;15.57;;;4.90;;
21820;SDS011;11073;48.586;12.066;2023-06-22T13:32:54;16.23;;;5.57;;
21820;SDS011;11073;48.586;12.066;2023-06-22T13:35:24;16.95;;;5.30;;
21820;SDS011;11073;48.586;12.066;2023-06-22T13:37:52;11.90;;;5.22;;
21820;SDS011;11073;48.586;12.066;2023-06-22T13:40:20;14.65;;;5.45;;
21820;SDS011;11073;48.586;12.066;2023-06-22T13:42:49;13.77;;;5.28;;
21820;SDS011;11073;48.586;12.066;2023-06-22T13:45:21;11.60;;;5.18;;
21820;SDS011;11073;48.586;12.066;2023-06-22T13:47:50;12.07;;;5.07;;
21820;SDS011;11073;48.586;12.066;2023-06-22T13:50:19;12.13;;;5.38;;
21820;SDS011;11073;48.586;12.066;2023-06-22T13:52:49;14.15;;;5.65;;
21820;SDS011;11073;48.586;12.066;2023-06-22T13:55:17;19.42;;;5.10;;
21820;SDS011;11073;48.586;12.066;2023-06-22T13:57:47;16.38;;;5.50;;
21820;SDS011;11073;48.586;12.066;2023-06-22T14:00:16;15.18;;;4.93;;
21820;SDS011;11073;48.586;12.066;2023-06-22T14:02:45;14.02;;;5.70;;
21820;SDS011;11073;48.586;12.066;2023-06-22T14:05:14;15.73;;;5.03;;
21820;SDS011;11073;48.586;12.066;2023-06-22T14:07:42;17.48;;;5.60;;
21820;SDS011;11073;48.586;12.066;2023-06-22T14:10:13;14.45;;;5.38;;
21820;SDS011;11073;48.586;12.066;2023-06-22T14:12:42;14.15;;;5.88;;
21820;SDS011;11073;48.586;12.066;2023-06-22T14:15:10;12.82;;;5.38;;
21820;SDS011;11073;48.586;12.066;2023-06-22T14:17:39;11.70;;;4.82;;
21820;SDS011;11073;48.586;12.066;2023-06-22T14:20:08;14.38;;;5.45;;
21820;SDS011;11073;48.586;12.066;2023-06-22T14:22:37;15.93;;;5.32;;
21820;SDS011;11073;48.586;12.066;2023-06-22T14:25:07;13.23;;;5.38;;
21820;SDS011;11073;48.586;12.066;2023-06-22T14:27:37;16.77;;;5.55;;
21820;SDS011;11073;48.586;12.066;2023-06-22T14:30:06;13.05;;;5.65;;
21820;SDS011;11073;48.586;12.066;2023-06-22T14:32:35;20.70;;;5.55;;
21820;SDS011;11073;48.586;12.066;2023-06-22T14:35:04;12.55;;;4.53;;
21820;SDS011;11073;48.586;12.066;2023-06-22T14:37:33;12.65;;;4.90;;
21820;SDS011;11073;48.586;12.066;2023-06-22T14:40:02;12.93;;;5.15;;
21820;SDS011;11073;48.586;12.066;2023-06-22T14:42:31;10.73;;;5.03;;
21820;SDS011;11073;48.586;12.066;2023-06-22T14:45:01;13.93;;;5.22;;
21820;SDS011;11073;48.586;12.066;2023-06-22T14:47:30;12.02;;;6.10;;
21820;SDS011;11073;48.586;12.066;2023-06-22T14:49:59;12.63;;;5.55;;
21820;SDS011;11073;48.586;12.066;2023-06-22T14:52:28;13.60;;;5.60;;
21820;SDS011;11073;48.586;12.066;2023-06-22T14:54:57;15.75;;;5.40;;
21820;SDS011;11073;48.586;12.066;2023-06-22T14:57:26;15.00;;;5.68;;
21820;SDS011;11073;48.586;12.066;2023-06-22T14:59:54;14.93;;;5.50;;
21820;SDS011;11073;48.586;12.066;2023-06-22T15:02:24;15.55;;;5.55;;
21820;SDS011;11073;48.586;12.066;2023-06-22T15:04:53;17.38;;;5.90;;
21820;SDS011;11073;48.586;12.066;2023-06-22T15:07:22;12.95;;;5.63;;
21820;SDS011;11073;48.586;12.066;2023-06-22T15:09:50;14.60;;;6.07;;
21820;SDS011;11073;48.586;12.066;2023-06-22T15:12:19;14.77;;;5.72;;
21820;SDS011;11073;48.586;12.066;2023-06-22T15:14:48;20.10;;;6.00;;
21820;SDS011;11073;48.586;12.066;2023-06-22T15:17:17;12.57;;;5.60;;
21820;SDS011;11073;48.586;12.066;2023-06-22T15:19:48;15.35;;;6.07;;
21820;SDS011;11073;48.586;12.066;2023-06-22T15:22:17;14.70;;;6.03;;
21820;SDS011;11073;48.586;12.066;2023-06-22T15:24:46;14.93;;;5.30;;
21820;SDS011;11073;48.586;12.066;2023-06-22T15:27:16;16.13;;;5.80;;
21820;SDS011;11073;48.586;12.066;2023-06-22T15:29:44;11.88;;;5.13;;
21820;SDS011;11073;48.586;12.066;2023-06-22T15:32:13;17.80;;;6.00;;
21820;SDS011;11073;48.586;12.066;2023-06-22T15:34:42;16.02;;;5.65;;
21820;SDS011;11073;48.586;12.066;2023-06-22T15:37:12;17.25;;;5.20;;
21820;SDS011;11073;48.586;12.066;2023-06-22T15:39:41;14.68;;;5.35;;
21820;SDS011;11073;48.586;12.066;2023-06-22T15:42:09;15.27;;;6.47;;
21820;SDS011;11073;48.586;12.066;2023-06-22T15:44:38;17.13;;;5.43;;
21820;SDS011;11073;48.586;12.066;2023-06-22T15:47:08;15.27;;;5.97;;
21820;SDS011;11073;48.586;12.066;2023-06-22T15:49:36;14.02;;;5.22;;
21820;SDS011;11073;48.586;12.066;2023-06-22T15:52:05;15.95;;;5.78;;
21820;SDS011;11073;48.586;12.066;2023-06-22T15:54:35;17.02;;;5.63;;
21820;SDS011;11073;48.586;12.066;2023-06-22T15:57:04;13.98;;;5.53;;
21820;SDS011;11073;48.586;12.066;2023-06-22T15:59:33;13.38;;;5.47;;
21820;SDS011;11073;48.586;12.066;2023-06-22T16:02:03;13.93;;;5.40;;
21820;SDS011;11073;48.586;12.066;2023-06-22T16:04:32;15.63;;;5.55;;
21820;SDS011;11073;48.586;12.066;2023-06-22T16:07:00;14.60;;;6.05;;
21820;SDS011;11073;48.586;12.066;2023-06-22T16:09:29;12.00;;;5.75;;
21820;SDS011;11073;48.586;12.066;2023-06-22T16:11:59;15.50;;;5.75;;
21820;SDS011;11073;48.586;12.066;2023-06-22T16:14:29;15.70;;;5.72;;
21820;SDS011;11073;48.586;12.066;2023-06-22T16:17:15;15.68;;;5.70;;
21820;SDS011;11073;48.586;12.066;2023-06-22T16:19:44;14.48;;;5.63;;
21820;SDS011;11073;48.586;12.066;2023-06-22T16:22:13;16.00;;;5.82;;
21820;SDS011;11073;48.586;12.066;2023-06-22T16:24:42;18.65;;;5.70;;
21820;SDS011;11073;48.586;12.066;2023-06-22T16:27:12;16.55;;;6.20;;
21820;SDS011;11073;48.586;12.066;2023-06-22T16:29:41;18.00;;;6.20;;
21820;SDS011;11073;48.586;12.066;2023-06-22T16:32:10;14.85;;;5.63;;
21820;SDS011;11073;48.586;12.066;2023-06-22T16:34:39;19.38;;;6.40;;
21820;SDS011;11073;48.586;12.066;2023-06-22T16:37:08;18.30;;;6.25;;
21820;SDS011;11073;48.586;12.066;2023-06-22T16:39:37;17.83;;;5.80;;
21820;SDS011;11073;48.586;12.066;2023-06-22T16:42:06;18.23;;;6.20;;
21820;SDS011;11073;48.586;12.066;2023-06-22T16:44:39;15.75;;;5.43;;
21820;SDS011;11073;48.586;12.066;2023-06-22T16:47:09;14.32;;;6.30;;
21820;SDS011;11073;48.586;12.066;2023-06-22T16:49:38;12.75;;;5.47;;
21820;SDS011;11073;48.586;12.066;2023-06-22T16:52:06;13.73;;;6.50;;
21820;SDS011;11073;48.586;12.066;2023-06-22T16:54:35;15.38;;;5.97;;
21820;SDS011;11073;48.586;12.066;2023-06-22T16:57:19;13.57;;;5.60;;
21820;SDS011;11073;48.586;12.066;2023-06-22T16:59:51;15.35;;;5.80;;
21820;SDS011;11073;48.586;12.066;2023-06-22T17:02:22;13.98;;;6.38;;
21820;SDS011;11073;48.586;12.066;2023-06-22T17:04:52;15.45;;;6.07;;
21820;SDS011;11073;48.586;12.066;2023-06-22T17:07:24;17.80;;;5.72;;
21820;SDS011;11073;48.586;12.066;2023-06-22T17:09:54;14.82;;;5.88;;
21820;SDS011;11073;48.586;12.066;2023-06-22T17:12:25;11.55;;;5.40;;
21820;SDS011;11073;48.586;12.066;2023-06-22T17:14:56;10.48;;;5.70;;
21820;SDS011;11073;48.586;12.066;2023-06-22T17:17:26;16.30;;;5.88;;
21820;SDS011;11073;48.586;12.066;2023-06-22T17:19:57;13.40;;;5.68;;
21820;SDS011;11073;48.586;12.066;2023-06-22T17:22:26;15.98;;;5.57;;
21820;SDS011;11073;48.586;12.066;2023-06-22T17:25:02;18.90;;;6.03;;
21820;SDS011;11073;48.586;12.066;2023-06-22T17:27:34;16.15;;;5.68;;
21820;SDS011;11073;48.586;12.066;2023-06-22T17:30:05;18.15;;;5.43;;
21820;SDS011;11073;48.586;12.066;2023-06-22T17:32:35;14.52;;;5.00;;
21820;SDS011;11073;48.586;12.066;2023-06-22T17:35:04;19.20;;;6.00;;
21820;SDS011;11073;48.586;12.066;2023-06-22T17:37:34;18.88;;;6.00;;
21820;SDS011;11073;48.586;12.066;2023-06-22T17:40:15;19.02;;;6.05;;
21820;SDS011;11073;48.586;12.066;2023-06-22T17:42:45;10.63;;;5.00;;
21820;SDS011;11073;48.586;12.066;2023-06-22T17:45:16;15.73;;;6.05;;
21820;SDS011;11073;48.586;12.066;2023-06-22T17:47:46;20.25;;;6.60;;
21820;SDS011;11073;48.586;12.066;2023-06-22T17:50:16;13.48;;;5.68;;
21820;SDS011;11073;48.586;12.066;2023-06-22T17:52:51;17.15;;;6.57;;
21820;SDS011;11073;48.586;12.066;2023-06-22T17:55:23;14.30;;;6.15;;
21820;SDS011;11073;48.586;12.066;2023-06-22T17:57:54;17.10;;;6.22;;
21820;SDS011;11073;48.586;12.066;2023-06-22T18:00:26;17.77;;;6.40;;
21820;SDS011;11073;48.586;12.066;2023-06-22T18:02:55;16.70;;;6.10;;
21820;SDS011;11073;48.586;12.066;2023-06-22T18:05:28;15.77;;;5.82;;
21820;SDS011;11073;48.586;12.066;2023-06-22T18:07:59;20.65;;;5.38;;
21820;SDS011;11073;48.586;12.066;2023-06-22T18:10:29;16.17;;;5.72;;
21820;SDS011;11073;48.586;12.066;2023-06-22T18:13:00;17.33;;;6.32;;
21820;SDS011;11073;48.586;12.066;2023-06-22T18:15:32;12.38;;;5.30;;
21820;SDS011;11073;48.586;12.066;2023-06-22T18:18:02;16.75;;;6.47;;
21820;SDS011;11073;48.586;12.066;2023-06-22T18:20:31;17.50;;;6.15;;
21820;SDS011;11073;48.586;12.066;2023-06-22T18:23:02;13.70;;;5.82;;
21820;SDS011;11073;48.586;12.066;2023-06-22T18:25:31;17.70;;;6.22;;
21820;SDS011;11073;48.586;12.066;2023-06-22T18:28:01;21.67;;;6.78;;
21820;SDS011;11073;48.586;12.066;2023-06-22T18:30:39;19.35;;;6.75;;
21820;SDS011;11073;48.586;12.066;2023-06-22T18:33:10;18.98;;;6.43;;
21820;SDS011;11073;48.586;12.066;2023-06-22T18:35:39;19.50;;;7.47;;
21820;SDS011;11073;48.586;12.066;2023-06-22T18:38:07;16.50;;;6.53;;
21820;SDS011;11073;48.586;12.066;2023-06-22T18:40:36;22.00;;;8.13;;
21820;SDS011;11073;48.586;12.066;2023-06-22T18:43:05;16.23;;;6.80;;
21820;SDS011;11073;48.586;12.066;2023-06-22T18:45:33;24.13;;;8.10;;
21820;SDS011;11073;48.586;12.066;2023-06-22T18:48:03;18.88;;;8.02;;